Time;durP1;ratioP1;P1;durP2;ratioP2;P2;SDS_P1;SDS_P2;PMS_P1;PMS_P2;Temp;Humidity;BMP_temperature;BMP_pressure;BME280_temperature;BME280_humidity;BME280_pressure;Samples;Min_cycle;Max_cycle;Signal;HPM_P1;HPM_P2
2022/12/29 00:02:13;;;;;;;;;;;11.60;99.90;;;;;;5010448;28;19921;-72
2022/12/29 00:04:38;;;;;;;;;;;11.80;99.90;;;;;;5011271;28;19952;-72
2022/12/29 00:07:04;;;;;;;;;;;11.60;99.90;;;;;;5013679;28;19997;-72
2022/12/29 00:09:30;;;;;;;;;;;11.50;99.90;;;;;;5014636;28;19932;-72
2022/12/29 00:11:56;;;;;;;;;;;11.60;99.90;;;;;;5013747;28;19921;-73
2022/12/29 00:17:05;;;;;;;;;;;11.60;99.90;;;;;;5013481;28;19921;-72
2022/12/29 00:36:06;;;;;;;;;;;12.20;99.90;;;;;;5012013;28;19929;-72
2022/12/29 00:44:07;;;;;;;;;;;12.10;99.90;;;;;;5014367;28;19918;-73
2022/12/29 00:46:33;;;;;;;;;;;12.10;99.90;;;;;;5014214;28;19928;-72
2022/12/29 00:51:43;;;;;;;;;;;11.90;99.90;;;;;;5038321;22;19916;-70
2022/12/29 00:54:09;;;;;;;;;;;12.00;99.90;;;;;;5022350;28;19974;-71
2022/12/29 00:56:34;;;;;;;;;;;11.80;99.90;;;;;;5017221;28;20064;-70
2022/12/29 00:59:03;;;;;;;;;;;12.10;99.90;;;;;;5020327;28;19921;-70
2022/12/29 01:01:29;;;;;;;;;;;11.90;99.90;;;;;;5014256;28;19921;-70
2022/12/29 01:03:54;;;;;;;;;;;12.00;99.90;;;;;;5023635;28;20293;-71
2022/12/29 01:06:20;;;;;;;;;;;12.50;99.90;;;;;;5018134;28;20008;-71
2022/12/29 01:08:45;;;;;;;;;;;11.80;99.90;;;;;;5012936;28;19949;-71
2022/12/29 01:11:12;;;;;;;;;;;11.70;99.90;;;;;;5014165;28;19944;-71
2022/12/29 01:13:38;;;;;;;;;;;12.00;99.90;;;;;;5011662;28;19980;-70
2022/12/29 01:16:07;;;;;;;;;;;12.70;99.90;;;;;;5011883;28;20372;-71
2022/12/29 01:18:33;;;;;;;;;;;;;;;;;;4995861;28;20083;-71
2022/12/29 01:21:02;;;;;;;;;;;11.80;99.90;;;;;;5007746;28;20459;-71
2022/12/29 01:23:27;;;;;;;;;;;12.00;99.90;;;;;;4996012;28;19944;-70
2022/12/29 01:25:53;;;;;;;;;;;11.70;99.90;;;;;;5011848;28;20387;-71
2022/12/29 01:28:18;;;;;;;;;;;12.20;99.90;;;;;;5012979;28;19932;-71
2022/12/29 01:30:44;;;;;;;;;;;11.90;99.90;;;;;;5011690;28;19928;-71
2022/12/29 01:33:11;;;;;;;;;;;11.90;99.90;;;;;;5010948;28;20414;-70
2022/12/29 01:35:37;;;;;;;;;;;12.00;99.90;;;;;;5011961;28;20008;-71
2022/12/29 01:38:03;;;;;;;;;;;;;;;;;;5011721;28;19926;-71
2022/12/29 01:40:28;;;;;;;;;;;12.00;99.90;;;;;;5011701;28;19929;-71
2022/12/29 01:42:54;;;;;;;;;;;;;;;;;;4995668;28;19929;-71
2022/12/29 01:45:20;;;;;;;;;;;11.70;99.90;;;;;;5010868;28;19961;-71
2022/12/29 01:47:47;;;;;;;;;;;11.90;99.90;;;;;;5013102;28;20000;-71
2022/12/29 01:50:20;;;;;;;;;;;11.60;99.90;;;;;;4995107;28;19929;-71
2022/12/29 01:52:51;;;;;;;;;;;11.70;99.90;;;;;;5011266;28;19921;-71
2022/12/29 01:55:17;;;;;;;;;;;11.70;99.90;;;;;;5012833;28;19925;-71
2022/12/29 01:57:45;;;;;;;;;;;12.00;99.90;;;;;;5011334;28;20020;-71
2022/12/29 02:00:13;;;;;;;;;;;11.60;99.90;;;;;;4997580;28;19922;-71
2022/12/29 02:02:40;;;;;;;;;;;11.80;99.90;;;;;;5015971;28;20060;-71
2022/12/29 02:05:11;;;;;;;;;;;11.60;99.90;;;;;;5015993;28;19925;-71
2022/12/29 02:07:37;;;;;;;;;;;11.80;99.90;;;;;;5013050;28;19992;-72
2022/12/29 02:10:02;;;;;;;;;;;12.10;99.90;;;;;;5011048;28;20425;-71
2022/12/29 02:12:28;;;;;;;;;;;11.60;99.90;;;;;;5012795;28;19976;-71
2022/12/29 02:14:55;;;;;;;;;;;11.80;99.90;;;;;;5011081;28;20019;-71
2022/12/29 02:17:24;;;;;;;;;;;11.40;99.90;;;;;;5011305;28;19921;-71
2022/12/29 02:20:04;;;;;;;;;;;11.80;99.90;;;;;;4994752;28;20394;-71
2022/12/29 02:22:30;;;;;;;;;;;11.80;99.90;;;;;;5010868;28;19921;-71
2022/12/29 02:25:14;;;;;;;;;;;11.40;99.90;;;;;;5011353;28;20387;-71
2022/12/29 02:27:45;;;;;;;;;;;11.70;99.90;;;;;;5009398;28;19929;-71
2022/12/29 02:30:11;;;;;;;;;;;11.80;99.90;;;;;;5011440;28;20299;-71
2022/12/29 02:32:39;;;;;;;;;;;11.30;99.90;;;;;;5012486;28;19922;-70
2022/12/29 02:35:14;;;;;;;;;;;11.70;99.90;;;;;;5011034;28;19961;-71
2022/12/29 02:37:39;;;;;;;;;;;11.80;99.90;;;;;;5011423;28;19922;-71
2022/12/29 02:40:20;;;;;;;;;;;11.90;99.90;;;;;;4994953;28;19922;-71
2022/12/29 02:42:49;;;;;;;;;;;12.00;99.90;;;;;;5011917;28;19973;-71
2022/12/29 02:45:20;;;;;;;;;;;11.40;99.90;;;;;;5010548;28;19921;-70
2022/12/29 02:47:45;;;;;;;;;;;11.80;99.90;;;;;;5010240;28;19922;-71
2022/12/29 02:50:17;;;;;;;;;;;11.60;99.90;;;;;;5010896;28;20004;-71
2022/12/29 02:52:46;;;;;;;;;;;12.00;99.90;;;;;;5011386;28;19921;-71
2022/12/29 02:55:12;;;;;;;;;;;12.10;99.90;;;;;;5010432;28;19922;-71
2022/12/29 02:57:37;;;;;;;;;;;12.00;99.90;;;;;;5010817;28;19922;-71
2022/12/29 03:00:07;;;;;;;;;;;12.20;99.90;;;;;;5010248;28;19922;-69
2022/12/29 03:02:33;;;;;;;;;;;;;;;;;;5010952;28;19928;-69
2022/12/29 03:05:04;;;;;;;;;;;11.80;99.90;;;;;;5011525;28;19928;-69
2022/12/29 03:07:40;;;;;;;;;;;12.00;99.90;;;;;;5010707;28;19928;-69
2022/12/29 03:10:14;;;;;;;;;;;11.90;99.90;;;;;;5011100;28;20449;-69
2022/12/29 03:18:46;;;;;;;;;;;12.20;99.90;;;;;;5002438;28;19921;-69
2022/12/29 03:22:26;;;;;;;;;;;11.80;99.90;;;;;;5010650;28;19929;-69
2022/12/29 03:24:17;;;;;;;;;;;11.40;99.90;;;;;;5009881;28;20493;-69
2022/12/29 03:26:44;;;;;;;;;;;11.30;99.90;;;;;;4992991;28;19929;-69
2022/12/29 03:29:10;;;;;;;;;;;12.70;99.90;;;;;;5009728;28;19933;-69
2022/12/29 03:31:36;;;;;;;;;;;11.60;99.90;;;;;;5011966;28;19921;-69
2022/12/29 03:34:03;;;;;;;;;;;11.30;99.90;;;;;;5010038;28;19921;-69
2022/12/29 03:36:36;;;;;;;;;;;11.30;99.90;;;;;;5010432;28;19929;-69
2022/12/29 03:39:06;;;;;;;;;;;11.10;99.90;;;;;;5011338;28;19921;-69
2022/12/29 03:41:32;;;;;;;;;;;11.50;99.90;;;;;;4997158;28;19922;-69
2022/12/29 03:43:58;;;;;;;;;;;11.40;99.90;;;;;;4994903;28;20329;-69
2022/12/29 03:46:23;;;;;;;;;;;11.30;99.90;;;;;;5005522;28;20029;-69
2022/12/29 03:48:49;;;;;;;;;;;11.30;99.90;;;;;;5014103;28;19936;-69
2022/12/29 03:51:14;;;;;;;;;;;11.50;99.90;;;;;;5015337;28;19973;-69
2022/12/29 03:53:40;;;;;;;;;;;11.20;99.90;;;;;;5014661;28;20405;-70
2022/12/29 03:56:05;;;;;;;;;;;11.40;99.90;;;;;;5013457;28;19929;-69
2022/12/29 03:58:31;;;;;;;;;;;11.30;99.90;;;;;;5014681;28;20470;-69
2022/12/29 04:00:57;;;;;;;;;;;11.20;99.90;;;;;;5014344;28;19925;-69
2022/12/29 04:03:22;;;;;;;;;;;11.30;99.90;;;;;;5013009;28;20415;-69
2022/12/29 04:05:48;;;;;;;;;;;11.70;99.90;;;;;;5013962;28;19928;-69
2022/12/29 04:08:13;;;;;;;;;;;11.30;99.90;;;;;;5013403;28;20353;-69
2022/12/29 04:10:39;;;;;;;;;;;11.20;99.90;;;;;;5013446;28;19921;-69
2022/12/29 04:13:04;;;;;;;;;;;11.20;99.90;;;;;;5013234;28;20271;-69
2022/12/29 04:15:30;;;;;;;;;;;11.30;99.90;;;;;;5012952;28;20034;-69
2022/12/29 04:17:55;;;;;;;;;;;11.40;99.90;;;;;;4996733;28;19922;-69
2022/12/29 04:23:06;;;;;;;;;;;11.00;99.90;;;;;;5014411;28;19944;-69
2022/12/29 04:25:32;;;;;;;;;;;11.20;99.90;;;;;;5013190;28;19961;-69
2022/12/29 04:27:57;;;;;;;;;;;11.20;99.90;;;;;;5014050;28;19969;-69
2022/12/29 04:30:23;;;;;;;;;;;11.30;99.90;;;;;;5014602;28;19936;-69
2022/12/29 04:32:48;;;;;;;;;;;11.20;99.90;;;;;;4996669;28;19929;-69
2022/12/29 04:35:14;;;;;;;;;;;11.10;99.90;;;;;;4996754;28;20474;-69
2022/12/29 04:37:40;;;;;;;;;;;10.90;99.90;;;;;;5013026;28;19925;-69
2022/12/29 04:40:06;;;;;;;;;;;11.00;99.90;;;;;;5013079;28;20395;-69
2022/12/29 04:42:31;;;;;;;;;;;10.90;99.90;;;;;;5014021;28;20318;-69
2022/12/29 04:44:57;;;;;;;;;;;11.20;99.90;;;;;;5014308;28;19932;-69
2022/12/29 04:47:22;;;;;;;;;;;10.80;99.90;;;;;;5012348;28;19925;-68
2022/12/29 04:49:48;;;;;;;;;;;;;;;;;;5014005;28;19949;-69
2022/12/29 04:52:14;;;;;;;;;;;10.80;99.90;;;;;;5013210;28;19922;-69
2022/12/29 04:54:39;;;;;;;;;;;10.70;99.90;;;;;;5013692;28;19922;-69
2022/12/29 04:57:05;;;;;;;;;;;10.70;99.90;;;;;;5013929;28;19928;-69
2022/12/29 04:59:30;;;;;;;;;;;10.90;99.90;;;;;;5013667;28;19936;-69
2022/12/29 05:01:56;;;;;;;;;;;11.00;99.90;;;;;;5012788;28;20001;-69
2022/12/29 05:04:21;;;;;;;;;;;10.80;99.90;;;;;;5014261;28;19927;-69
2022/12/29 05:06:47;;;;;;;;;;;10.90;99.90;;;;;;5012792;28;19929;-69
2022/12/29 05:09:12;;;;;;;;;;;10.80;99.90;;;;;;5012845;28;19925;-69
2022/12/29 05:11:38;;;;;;;;;;;10.50;99.90;;;;;;5012057;28;19960;-69
2022/12/29 05:14:03;;;;;;;;;;;11.00;99.90;;;;;;5013812;28;20268;-69
2022/12/29 05:16:29;;;;;;;;;;;10.70;99.90;;;;;;5013568;28;19921;-69
2022/12/29 05:18:54;;;;;;;;;;;10.50;99.90;;;;;;5012012;28;19972;-68
2022/12/29 05:21:20;;;;;;;;;;;10.60;99.90;;;;;;5013791;28;20501;-69
2022/12/29 05:23:45;;;;;;;;;;;;;;;;;;5011704;28;19921;-69
2022/12/29 05:26:11;;;;;;;;;;;10.50;99.90;;;;;;5011302;28;20410;-69
2022/12/29 05:28:36;;;;;;;;;;;10.50;99.90;;;;;;5012112;28;19926;-69
2022/12/29 05:31:02;;;;;;;;;;;11.20;99.90;;;;;;5011739;28;19925;-69
2022/12/29 05:33:27;;;;;;;;;;;10.40;99.90;;;;;;5013163;28;20074;-69
2022/12/29 05:35:53;;;;;;;;;;;10.60;99.90;;;;;;5011708;28;20268;-69
2022/12/29 05:38:18;;;;;;;;;;;10.90;99.90;;;;;;5013568;28;19928;-69
2022/12/29 05:40:44;;;;;;;;;;;10.60;99.90;;;;;;5011567;28;19928;-69
2022/12/29 05:43:10;;;;;;;;;;;;;;;;;;5012885;28;19960;-69
2022/12/29 05:45:36;;;;;;;;;;;10.60;99.90;;;;;;5011433;28;20008;-69
2022/12/29 05:48:01;;;;;;;;;;;10.90;99.90;;;;;;5011458;28;19925;-69
2022/12/29 05:50:27;;;;;;;;;;;10.80;99.90;;;;;;5013332;28;19983;-69
2022/12/29 05:52:52;;;;;;;;;;;10.80;99.90;;;;;;5012420;28;19966;-69
2022/12/29 05:55:18;;;;;;;;;;;10.90;99.90;;;;;;4994940;28;20019;-69
2022/12/29 05:57:43;;;;;;;;;;;10.90;99.90;;;;;;5011364;28;19928;-69
2022/12/29 06:00:09;;;;;;;;;;;10.80;99.90;;;;;;5011295;28;19937;-69
2022/12/29 06:02:35;;;;;;;;;;;10.70;99.90;;;;;;5011638;28;19922;-69
2022/12/29 06:05:00;;;;;;;;;;;10.80;99.90;;;;;;5010961;28;19921;-69
2022/12/29 06:07:26;;;;;;;;;;;10.90;99.90;;;;;;5011134;28;20472;-69
2022/12/29 06:09:51;;;;;;;;;;;10.60;99.90;;;;;;4994995;28;19932;-69
2022/12/29 06:12:17;;;;;;;;;;;10.80;99.90;;;;;;5010755;28;20318;-69
2022/12/29 06:14:42;;;;;;;;;;;10.70;99.90;;;;;;5011552;28;20012;-69
2022/12/29 06:17:08;;;;;;;;;;;10.70;99.90;;;;;;5011858;28;20020;-68
2022/12/29 06:19:33;;;;;;;;;;;10.80;99.90;;;;;;5011850;28;19921;-69
2022/12/29 06:21:59;;;;;;;;;;;10.80;99.90;;;;;;5011301;28;19928;-69
2022/12/29 06:24:24;;;;;;;;;;;10.70;99.90;;;;;;5012355;28;20469;-69
2022/12/29 06:26:49;;;;;;;;;;;11.50;99.90;;;;;;5011265;28;19972;-69
2022/12/29 06:29:16;;;;;;;;;;;10.70;99.90;;;;;;4994162;28;19930;-69
2022/12/29 06:31:43;;;;;;;;;;;10.60;99.90;;;;;;5012423;28;19921;-69
2022/12/29 06:34:08;;;;;;;;;;;10.50;99.90;;;;;;5012484;28;20406;-69
2022/12/29 06:36:34;;;;;;;;;;;;;;;;;;5010288;28;19969;-68
2022/12/29 06:39:00;;;;;;;;;;;10.30;99.90;;;;;;5010958;28;19921;-68
2022/12/29 06:41:25;;;;;;;;;;;10.70;99.90;;;;;;5012468;28;20008;-68
2022/12/29 06:43:51;;;;;;;;;;;10.40;99.90;;;;;;4997026;28;19922;-69
2022/12/29 06:46:16;;;;;;;;;;;10.20;99.90;;;;;;5012425;28;19960;-69
2022/12/29 06:48:42;;;;;;;;;;;10.60;99.90;;;;;;5011871;28;19933;-68
2022/12/29 06:51:07;;;;;;;;;;;10.40;99.90;;;;;;5010953;28;20008;-68
2022/12/29 06:53:33;;;;;;;;;;;10.50;99.90;;;;;;5011693;28;20294;-69
2022/12/29 06:55:58;;;;;;;;;;;10.60;99.90;;;;;;5011327;28;19929;-68
2022/12/29 06:58:24;;;;;;;;;;;10.60;99.90;;;;;;4993160;28;19925;-68
2022/12/29 07:00:49;;;;;;;;;;;10.60;99.90;;;;;;5010608;28;20008;-68
2022/12/29 07:03:15;;;;;;;;;;;10.50;99.90;;;;;;5010044;28;19928;-69
2022/12/29 07:05:40;;;;;;;;;;;10.40;99.90;;;;;;5010800;28;19967;-68
2022/12/29 07:08:06;;;;;;;;;;;;;;;;;;5010303;28;19979;-69
2022/12/29 07:10:32;;;;;;;;;;;10.50;99.90;;;;;;5011998;28;19928;-69
2022/12/29 07:12:57;;;;;;;;;;;10.50;99.90;;;;;;5011780;28;19968;-68
2022/12/29 07:15:23;;;;;;;;;;;10.60;99.90;;;;;;5013307;28;19921;-68
2022/12/29 07:17:49;;;;;;;;;;;10.60;99.90;;;;;;5015714;28;20008;-68
2022/12/29 07:20:15;;;;;;;;;;;10.40;99.90;;;;;;5014210;28;20495;-69
2022/12/29 07:22:41;;;;;;;;;;;10.60;99.90;;;;;;5015536;28;20059;-69
2022/12/29 07:25:06;;;;;;;;;;;10.70;99.90;;;;;;5013353;28;20318;-68
2022/12/29 07:27:32;;;;;;;;;;;10.50;99.90;;;;;;5013806;28;19987;-68
2022/12/29 07:29:57;;;;;;;;;;;10.60;99.90;;;;;;5014532;28;20068;-69
2022/12/29 07:32:23;;;;;;;;;;;10.60;99.90;;;;;;5013988;28;19921;-68
2022/12/29 07:34:48;;;;;;;;;;;10.70;99.90;;;;;;5014413;28;19925;-69
2022/12/29 07:37:15;;;;;;;;;;;10.70;99.90;;;;;;5015389;28;20310;-69
2022/12/29 07:39:41;;;;;;;;;;;10.70;99.90;;;;;;5015181;28;19928;-69
2022/12/29 07:42:06;;;;;;;;;;;10.70;99.90;;;;;;5013920;28;19929;-68
2022/12/29 07:44:32;;;;;;;;;;;10.80;99.90;;;;;;4997492;28;19921;-68
2022/12/29 07:46:57;;;;;;;;;;;10.70;99.90;;;;;;5011692;28;20306;-69
2022/12/29 07:49:23;;;;;;;;;;;10.40;99.90;;;;;;5013142;28;19925;-69
2022/12/29 07:51:48;;;;;;;;;;;10.50;99.90;;;;;;5016482;28;20054;-69
2022/12/29 07:54:14;;;;;;;;;;;10.80;99.90;;;;;;5014141;28;19921;-68
2022/12/29 07:56:40;;;;;;;;;;;10.60;99.90;;;;;;5012693;28;20424;-69
2022/12/29 07:59:05;;;;;;;;;;;10.60;99.90;;;;;;5014663;28;19965;-69
2022/12/29 08:01:31;;;;;;;;;;;10.60;99.90;;;;;;5012877;28;19921;-69
2022/12/29 08:03:56;;;;;;;;;;;10.70;99.90;;;;;;5013201;28;19947;-69
2022/12/29 08:06:22;;;;;;;;;;;10.80;99.90;;;;;;5003462;28;19949;-69
2022/12/29 08:08:47;;;;;;;;;;;10.60;99.90;;;;;;5006985;28;19930;-69
2022/12/29 08:11:13;;;;;;;;;;;10.50;99.90;;;;;;5013355;28;19922;-68
2022/12/29 08:13:38;;;;;;;;;;;10.70;99.90;;;;;;5014367;28;20394;-69
2022/12/29 08:16:04;;;;;;;;;;;10.70;99.90;;;;;;5012671;28;19929;-68
2022/12/29 08:18:29;;;;;;;;;;;10.50;99.90;;;;;;5013385;28;19991;-69
2022/12/29 08:20:55;;;;;;;;;;;10.70;99.90;;;;;;5013339;28;19922;-71
2022/12/29 08:23:20;;;;;;;;;;;10.50;99.90;;;;;;5014607;28;19922;-71
2022/12/29 08:25:46;;;;;;;;;;;10.70;99.90;;;;;;4995886;28;19966;-70
2022/12/29 08:28:12;;;;;;;;;;;;;;;;;;5014453;28;20023;-71
2022/12/29 08:30:38;;;;;;;;;;;10.70;99.90;;;;;;4996361;28;20006;-71
2022/12/29 08:33:03;;;;;;;;;;;10.70;99.90;;;;;;5014084;28;20395;-70
2022/12/29 08:35:29;;;;;;;;;;;10.70;99.90;;;;;;5014362;28;19922;-69
2022/12/29 08:37:54;;;;;;;;;;;10.70;99.90;;;;;;5012429;28;19921;-70
2022/12/29 08:40:20;;;;;;;;;;;10.70;99.90;;;;;;5013064;28;19921;-70
2022/12/29 08:42:45;;;;;;;;;;;10.60;99.90;;;;;;5011900;28;19932;-68
2022/12/29 08:45:11;;;;;;;;;;;10.70;99.90;;;;;;4994809;28;19929;-69
2022/12/29 08:47:36;;;;;;;;;;;10.70;99.90;;;;;;5012982;28;20429;-68
2022/12/29 08:50:02;;;;;;;;;;;10.70;99.90;;;;;;4995928;28;19951;-68
2022/12/29 08:52:27;;;;;;;;;;;10.70;99.90;;;;;;5012802;28;19922;-69
2022/12/29 08:54:53;;;;;;;;;;;10.70;99.90;;;;;;5013949;28;19944;-68
2022/12/29 08:57:18;;;;;;;;;;;10.80;99.90;;;;;;5013431;28;19922;-68
2022/12/29 08:59:44;;;;;;;;;;;10.80;99.90;;;;;;5015515;28;19921;-69
2022/12/29 09:02:11;;;;;;;;;;;10.50;99.90;;;;;;5015210;28;19984;-69
2022/12/29 09:04:36;;;;;;;;;;;10.60;99.90;;;;;;5012219;28;19979;-68
2022/12/29 09:07:02;;;;;;;;;;;10.70;99.90;;;;;;5013125;28;20390;-68
2022/12/29 09:09:27;;;;;;;;;;;10.70;99.90;;;;;;5012355;28;19926;-69
2022/12/29 09:11:53;;;;;;;;;;;;;;;;;;5012548;28;19991;-69
2022/12/29 09:14:19;;;;;;;;;;;10.70;99.90;;;;;;5011744;28;19928;-68
2022/12/29 09:19:30;;;;;;;;;;;10.60;99.90;;;;;;5012187;28;20023;-68
2022/12/29 09:21:55;;;;;;;;;;;10.60;99.90;;;;;;5012635;28;20071;-69
2022/12/29 09:24:21;;;;;;;;;;;10.40;99.90;;;;;;5013501;28;20004;-69
2022/12/29 09:26:46;;;;;;;;;;;10.60;99.90;;;;;;5011687;28;19933;-68
2022/12/29 09:29:12;;;;;;;;;;;11.40;99.90;;;;;;5013450;28;19925;-69
2022/12/29 09:31:37;;;;;;;;;;;10.40;99.90;;;;;;4994994;28;19923;-69
2022/12/29 09:34:03;;;;;;;;;;;10.60;99.90;;;;;;5012209;28;20371;-69
2022/12/29 09:36:28;;;;;;;;;;;11.20;99.90;;;;;;5011318;28;19957;-69
2022/12/29 09:38:54;;;;;;;;;;;10.60;99.90;;;;;;5012541;28;19929;-68
2022/12/29 09:41:24;;;;;;;;;;;10.60;99.90;;;;;;5007065;28;19926;-69
2022/12/29 09:43:54;;;;;;;;;;;10.70;99.90;;;;;;5007939;28;19921;-69
2022/12/29 09:46:27;;;;;;;;;;;10.50;99.90;;;;;;5008230;28;19980;-69
2022/12/29 09:49:04;;;;;;;;;;;10.70;99.90;;;;;;4990353;28;19945;-68
2022/12/29 09:51:30;;;;;;;;;;;10.40;99.90;;;;;;5006363;28;19956;-68
2022/12/29 09:53:58;;;;;;;;;;;10.40;99.90;;;;;;5007327;28;19929;-67
2022/12/29 09:56:24;;;;;;;;;;;10.50;99.90;;;;;;5001308;28;20273;-69
2022/12/29 09:59:07;;;;;;;;;;;10.30;99.90;;;;;;4984026;28;19922;-68
2022/12/29 10:01:36;;;;;;;;;;;10.50;99.90;;;;;;5004760;28;19929;-69
2022/12/29 10:04:10;;;;;;;;;;;10.60;99.90;;;;;;5002990;28;19929;-68
2022/12/29 10:06:39;;;;;;;;;;;10.60;99.90;;;;;;5007685;28;19925;-69
2022/12/29 10:09:25;;;;;;;;;;;10.30;99.90;;;;;;5000878;28;19929;-69
2022/12/29 10:11:51;;;;;;;;;;;;;;;;;;5007839;28;19978;-69
2022/12/29 10:14:23;;;;;;;;;;;10.50;99.90;;;;;;5006673;28;20405;-70
2022/12/29 10:16:57;;;;;;;;;;;10.30;99.90;;;;;;5007240;28;19969;-69
2022/12/29 10:19:35;;;;;;;;;;;10.00;99.90;;;;;;5005856;28;20283;-69
2022/12/29 10:22:12;;;;;;;;;;;9.90;99.90;;;;;;5000268;28;20034;-69
2022/12/29 10:24:38;;;;;;;;;;;;;;;;;;5006008;28;19960;-69
2022/12/29 10:27:05;;;;;;;;;;;10.20;99.90;;;;;;4993548;28;19976;-68
2022/12/29 10:29:37;;;;;;;;;;;10.30;99.90;;;;;;5002582;28;20229;-68
2022/12/29 10:32:04;;;;;;;;;;;10.10;99.90;;;;;;5000346;28;20021;-69
2022/12/29 10:34:42;;;;;;;;;;;10.30;99.90;;;;;;5001306;28;19932;-69
2022/12/29 10:37:26;;;;;;;;;;;10.20;99.90;;;;;;5004151;28;19922;-68
2022/12/29 10:39:53;;;;;;;;;;;10.10;99.90;;;;;;5005575;28;19922;-68
2022/12/29 10:42:18;;;;;;;;;;;10.30;99.90;;;;;;5002992;28;19933;-68
2022/12/29 10:44:43;;;;;;;;;;;10.40;99.90;;;;;;5004988;28;20145;-69
2022/12/29 10:47:16;;;;;;;;;;;10.40;99.90;;;;;;4990539;28;20008;-69
2022/12/29 10:49:44;;;;;;;;;;;10.50;99.90;;;;;;5007591;28;19972;-69
2022/12/29 10:52:10;;;;;;;;;;;10.50;99.90;;;;;;5008870;28;19953;-68
2022/12/29 10:54:43;;;;;;;;;;;10.30;99.90;;;;;;4992881;28;20383;-68
2022/12/29 10:57:11;;;;;;;;;;;10.30;99.90;;;;;;5007131;28;19926;-69
2022/12/29 10:59:37;;;;;;;;;;;10.40;99.90;;;;;;5010993;28;19929;-69
2022/12/29 11:02:11;;;;;;;;;;;10.60;99.90;;;;;;4993287;28;19922;-69
2022/12/29 11:04:39;;;;;;;;;;;10.20;99.90;;;;;;5011161;28;19932;-69
2022/12/29 11:07:06;;;;;;;;;;;10.40;99.90;;;;;;5011367;28;19983;-69
2022/12/29 11:09:33;;;;;;;;;;;10.30;99.90;;;;;;5009935;28;19987;-69
2022/12/29 11:11:59;;;;;;;;;;;10.30;99.90;;;;;;5010716;28;20407;-69
2022/12/29 11:14:29;;;;;;;;;;;10.60;99.90;;;;;;5009108;28;19921;-72
2022/12/29 11:16:58;;;;;;;;;;;10.40;99.90;;;;;;5006882;28;19921;-72
2022/12/29 11:19:25;;;;;;;;;;;10.70;99.90;;;;;;5009807;28;19922;-69
2022/12/29 11:21:51;;;;;;;;;;;10.50;99.90;;;;;;5009630;28;19944;-69
2022/12/29 11:24:23;;;;;;;;;;;10.50;99.90;;;;;;5011955;28;19972;-69
2022/12/29 11:26:50;;;;;;;;;;;10.60;99.90;;;;;;5009508;28;19925;-71
2022/12/29 11:29:16;;;;;;;;;;;11.30;99.90;;;;;;5009309;28;19925;-69
2022/12/29 11:31:45;;;;;;;;;;;10.70;99.90;;;;;;5010141;28;19922;-69
2022/12/29 11:34:16;;;;;;;;;;;10.60;99.90;;;;;;5010958;28;19921;-69
2022/12/29 11:36:42;;;;;;;;;;;10.70;99.90;;;;;;5010220;28;19971;-69
2022/12/29 11:39:23;;;;;;;;;;;10.90;99.90;;;;;;5012329;28;19921;-69
2022/12/29 11:41:52;;;;;;;;;;;11.00;99.90;;;;;;5011410;28;20040;-70
2022/12/29 11:44:17;;;;;;;;;;;10.90;99.90;;;;;;5010754;28;19925;-70
2022/12/29 11:46:45;;;;;;;;;;;10.90;99.90;;;;;;4995343;28;19929;-70
2022/12/29 11:49:13;;;;;;;;;;;10.90;99.90;;;;;;5009903;28;19933;-70
2022/12/29 11:51:42;;;;;;;;;;;11.10;99.90;;;;;;5011481;28;19921;-70
2022/12/29 11:54:15;;;;;;;;;;;11.30;99.90;;;;;;5009949;28;20465;-71
2022/12/29 11:56:41;;;;;;;;;;;11.40;99.90;;;;;;5011523;28;19928;-70
2022/12/29 11:59:38;;;;;;;;;;;12.10;99.90;;;;;;5009858;28;19933;-70
2022/12/29 12:02:13;;;;;;;;;;;11.20;99.90;;;;;;5014806;28;19996;-69
2022/12/29 12:04:39;;;;;;;;;;;11.30;99.90;;;;;;5012999;28;19922;-70
2022/12/29 12:07:07;;;;;;;;;;;11.20;99.90;;;;;;5013631;28;19975;-70
2022/12/29 12:09:56;;;;;;;;;;;11.30;99.90;;;;;;5013372;28;20016;-69
2022/12/29 12:12:29;;;;;;;;;;;11.10;99.90;;;;;;5000385;28;19928;-70
2022/12/29 12:14:59;;;;;;;;;;;11.10;99.90;;;;;;4997772;28;19921;-70
2022/12/29 12:17:32;;;;;;;;;;;11.10;99.90;;;;;;5014944;28;19921;-69
2022/12/29 12:20:04;;;;;;;;;;;11.00;99.90;;;;;;4996023;28;19922;-70
2022/12/29 12:22:34;;;;;;;;;;;10.80;99.90;;;;;;5014766;28;19921;-70
2022/12/29 12:25:06;;;;;;;;;;;11.10;99.90;;;;;;5013334;28;19995;-70
2022/12/29 12:27:33;;;;;;;;;;;;;;;;;;4996832;28;19921;-70
2022/12/29 12:29:59;;;;;;;;;;;10.90;99.90;;;;;;5014752;28;20460;-70
2022/12/29 12:32:34;;;;;;;;;;;11.10;99.90;;;;;;5012570;28;19969;-69
2022/12/29 12:35:01;;;;;;;;;;;11.10;99.90;;;;;;5013536;28;20421;-70
2022/12/29 12:37:27;;;;;;;;;;;;;;;;;;5012039;28;19925;-69
2022/12/29 12:40:22;;;;;;;;;;;10.90;99.90;;;;;;5012822;28;20434;-69
2022/12/29 12:42:53;;;;;;;;;;;10.90;99.90;;;;;;5005674;28;19925;-70
2022/12/29 12:45:28;;;;;;;;;;;10.90;99.90;;;;;;4988647;28;20347;-69
2022/12/29 12:48:13;;;;;;;;;;;10.80;99.90;;;;;;5009224;28;20012;-69
2022/12/29 12:50:48;;;;;;;;;;;11.00;99.90;;;;;;5003766;28;19968;-69
2022/12/29 12:53:31;;;;;;;;;;;11.00;99.90;;;;;;4996740;28;20358;-70
2022/12/29 12:56:04;;;;;;;;;;;10.80;99.90;;;;;;5003571;28;19940;-69
2022/12/29 12:58:36;;;;;;;;;;;10.90;99.90;;;;;;5005880;28;19968;-70
2022/12/29 13:01:13;;;;;;;;;;;10.80;99.90;;;;;;5010514;28;19928;-69
2022/12/29 13:03:57;;;;;;;;;;;10.80;99.90;;;;;;5003226;28;19995;-69
2022/12/29 13:06:42;;;;;;;;;;;10.80;99.90;;;;;;5011925;28;19928;-69
2022/12/29 13:09:14;;;;;;;;;;;11.10;99.90;;;;;;5011002;28;19925;-69
2022/12/29 13:11:58;;;;;;;;;;;10.60;99.90;;;;;;4994099;28;20417;-69
2022/12/29 13:14:33;;;;;;;;;;;10.90;99.90;;;;;;5009871;28;19928;-70
2022/12/29 13:17:08;;;;;;;;;;;10.90;99.90;;;;;;5011830;28;20016;-70
2022/12/29 13:19:42;;;;;;;;;;;10.70;99.90;;;;;;5011409;28;20421;-70
2022/12/29 13:22:14;;;;;;;;;;;10.70;99.90;;;;;;5009013;28;20421;-68
2022/12/29 13:24:58;;;;;;;;;;;10.90;99.90;;;;;;5012968;28;19928;-68
2022/12/29 13:27:27;;;;;;;;;;;10.80;99.90;;;;;;5011733;28;19921;-69
2022/12/29 13:30:11;;;;;;;;;;;10.80;99.90;;;;;;5011283;28;19986;-68
2022/12/29 13:32:37;;;;;;;;;;;;;;;;;;5010878;28;19933;-69
2022/12/29 13:35:17;;;;;;;;;;;10.90;99.90;;;;;;5010970;28;20124;-67
2022/12/29 13:38:06;;;;;;;;;;;10.90;99.90;;;;;;5012143;28;19992;-68
2022/12/29 13:40:34;;;;;;;;;;;10.90;99.90;;;;;;5008703;28;20008;-68
2022/12/29 13:42:59;;;;;;;;;;;10.90;99.90;;;;;;4995268;28;20446;-68
2022/12/29 13:45:28;;;;;;;;;;;11.10;99.90;;;;;;5012746;28;20012;-67
2022/12/29 13:48:12;;;;;;;;;;;10.90;99.90;;;;;;5012973;28;19921;-68
2022/12/29 13:50:39;;;;;;;;;;;10.90;99.90;;;;;;5012317;28;19926;-68
2022/12/29 13:53:14;;;;;;;;;;;10.90;99.90;;;;;;5010648;28;20000;-68
2022/12/29 13:55:53;;;;;;;;;;;10.90;99.90;;;;;;4994585;28;19921;-67
2022/12/29 13:58:31;;;;;;;;;;;10.80;99.90;;;;;;5010654;28;20020;-68
2022/12/29 14:01:00;;;;;;;;;;;10.80;99.90;;;;;;5010924;28;20019;-68
2022/12/29 14:03:25;;;;;;;;;;;10.50;99.90;;;;;;5011482;28;19921;-69
2022/12/29 14:06:05;;;;;;;;;;;10.70;99.90;;;;;;5010897;28;19922;-69
2022/12/29 14:08:33;;;;;;;;;;;10.70;99.90;;;;;;5011604;28;20501;-68
2022/12/29 14:11:05;;;;;;;;;;;11.10;99.90;;;;;;5012072;28;19925;-69
2022/12/29 14:13:31;;;;;;;;;;;10.70;99.90;;;;;;5011547;28;20375;-68
2022/12/29 14:15:57;;;;;;;;;;;10.30;99.90;;;;;;5010678;28;19979;-68
2022/12/29 14:18:25;;;;;;;;;;;11.40;99.90;;;;;;5010718;28;19968;-69
2022/12/29 14:20:52;;;;;;;;;;;10.70;99.90;;;;;;4994934;28;19925;-69
2022/12/29 14:23:37;;;;;;;;;;;10.40;99.90;;;;;;5010500;28;19928;-69
2022/12/29 14:26:06;;;;;;;;;;;10.50;99.90;;;;;;5010906;28;20286;-69
2022/12/29 14:28:35;;;;;;;;;;;10.30;99.90;;;;;;5011570;28;19980;-69
2022/12/29 14:31:05;;;;;;;;;;;10.20;99.90;;;;;;5010726;28;19956;-68
2022/12/29 14:33:33;;;;;;;;;;;10.30;99.90;;;;;;5012397;28;19975;-68
2022/12/29 14:36:19;;;;;;;;;;;10.40;99.90;;;;;;5010566;28;20000;-68
2022/12/29 14:38:45;;;;;;;;;;;10.30;99.90;;;;;;5011924;28;20025;-68
2022/12/29 14:41:24;;;;;;;;;;;10.20;99.90;;;;;;5012307;28;19922;-69
2022/12/29 14:43:57;;;;;;;;;;;10.20;99.90;;;;;;5010668;28;19921;-67
2022/12/29 14:46:23;;;;;;;;;;;10.20;99.90;;;;;;5010425;28;19922;-67
2022/12/29 14:48:54;;;;;;;;;;;9.90;99.90;;;;;;5009612;28;19984;-68
2022/12/29 14:51:31;;;;;;;;;;;10.40;99.90;;;;;;4994172;28;20350;-67
2022/12/29 14:53:56;;;;;;;;;;;10.10;99.90;;;;;;5011872;28;19983;-68
2022/12/29 14:56:27;;;;;;;;;;;10.10;99.90;;;;;;5010402;28;19960;-68
2022/12/29 14:58:57;;;;;;;;;;;10.10;99.90;;;;;;5012094;28;19921;-68
2022/12/29 15:01:26;;;;;;;;;;;10.10;99.90;;;;;;5009821;28;20001;-68
2022/12/29 15:03:54;;;;;;;;;;;10.00;99.90;;;;;;5010946;28;19977;-68
2022/12/29 15:06:22;;;;;;;;;;;;;;;;;;5009052;28;19922;-68
2022/12/29 15:08:51;;;;;;;;;;;10.30;99.90;;;;;;5009851;28;20469;-68
2022/12/29 15:11:26;;;;;;;;;;;10.10;99.90;;;;;;5010536;28;20159;-68